Charleston, Mississippi
Current Conditions -  °F | °C
As of 4:55 AM on Sunday 26 Oct 2014 (Local Time) from KCKM Reporting Station
Overcast Overcast  
Wind Chill: 59°   Ceiling: 500
Heat Index: 59°   Visibility: 0.75mi
Dew Point: 59°   Wind: 0mph
Humidity: 100%   Direction: NA
Pressure: 30.02"   Gusts: NA
Location:  34.01°N, 90.06°W
Report Text: KCKM 260955Z AUTO 00000KT 3/4SM VV005 15/15 A3002 RMK AO1
Loading
Personal Weather Stations






























Interactive Weather Map
Tropical Storm Tracking
New forecast layout! Learn more

10-Day Weather Forecast

Advertisements
Track Severe Weather on mobile